Terminal Aerodrome Forecast
Issued by NWS Shreveport, LA

Home | Current Version | Previous Version | Text Only | Print | Product List | Glossary On
Versions: 1 2 3 4 5 6 7 8 9 10 11 12 13 14 15 16 17
000
FTUS44 KSHV 250500 RRA
TAFELD
TAF
KELD 250541Z 2506/2606 04003KT P6SM SKC
      TEMPO 2507/2511 2SM BR FEW005
     FM251100 05003KT 3SM BR BKN005
     FM251400 10004KT P6SM SCT020 SCT250=

USA.gov is the U.S. government's official web portal to all federal, state and local government web resources and services.